createdAt,value
2022-08-08T00:03:19.811Z,315
2022-08-08T00:08:02.177Z,315
2022-08-08T00:13:02.254Z,315
2022-08-08T00:18:04.510Z,315
2022-08-08T00:23:02.129Z,315
2022-08-08T00:28:02.080Z,315
2022-08-08T00:33:02.493Z,315
2022-08-08T00:38:02.785Z,315
2022-08-08T00:43:11.952Z,315
2022-08-08T00:48:06.422Z,315
2022-08-08T00:53:02.254Z,315
2022-08-08T00:58:01.966Z,315
2022-08-08T01:03:57.471Z,315
2022-08-08T01:08:02.466Z,315
2022-08-08T01:13:02.742Z,315
2022-08-08T01:18:02.892Z,315
2022-08-08T01:23:03.055Z,315
2022-08-08T01:28:02.417Z,315
2022-08-08T01:33:02.731Z,315
2022-08-08T01:38:02.260Z,315
2022-08-08T01:43:02.415Z,315
2022-08-08T01:48:23.805Z,315
2022-08-08T01:54:07.468Z,315
2022-08-08T01:58:12.185Z,315
2022-08-08T02:03:04.434Z,315
2022-08-08T02:08:02.648Z,315
2022-08-08T02:13:02.221Z,315
2022-08-08T02:18:03.013Z,315
2022-08-08T02:23:02.293Z,315
2022-08-08T02:28:02.709Z,315
2022-08-08T02:33:02.579Z,315
2022-08-08T02:38:02.306Z,315
2022-08-08T02:44:35.561Z,315
2022-08-08T02:48:02.540Z,315
2022-08-08T02:53:02.635Z,315
2022-08-08T02:58:01.991Z,315
2022-08-08T03:03:02.939Z,315
2022-08-08T03:08:02.926Z,315
2022-08-08T03:13:07.355Z,315
2022-08-08T03:18:06.539Z,315
2022-08-08T03:23:04.605Z,315
2022-08-08T03:28:02.912Z,315
2022-08-08T03:33:03.880Z,315
2022-08-08T03:38:56.608Z,315
2022-08-08T03:43:16.337Z,315
2022-08-08T03:48:02.975Z,315
2022-08-08T03:53:03.016Z,315
2022-08-08T03:58:31.853Z,315
2022-08-08T04:03:03.886Z,315
2022-08-08T04:08:02.437Z,315
2022-08-08T04:13:17.113Z,315
2022-08-08T04:18:02.421Z,315
2022-08-08T04:23:03.688Z,315
2022-08-08T04:28:35.349Z,315
2022-08-08T04:33:02.860Z,315
2022-08-08T04:38:02.172Z,315
2022-08-08T04:43:02.192Z,315
2022-08-08T04:48:03.577Z,315
2022-08-08T04:53:05.353Z,315
2022-08-08T04:58:03.037Z,315
2022-08-08T05:03:02.640Z,315
2022-08-08T05:08:02.770Z,315
2022-08-08T05:13:02.813Z,315
2022-08-08T05:18:02.940Z,315
2022-08-08T05:23:02.320Z,315
2022-08-08T05:28:03.048Z,315
2022-08-08T05:33:03.263Z,315
2022-08-08T05:38:02.533Z,315
2022-08-08T05:43:02.776Z,315
2022-08-08T05:48:08.690Z,315
2022-08-08T05:53:53.774Z,315
2022-08-08T05:58:04.964Z,315
2022-08-08T06:03:02.433Z,315
2022-08-08T06:08:09.333Z,315
2022-08-08T06:13:03.043Z,315
2022-08-08T06:18:20.899Z,315
2022-08-08T06:23:02.636Z,315
2022-08-08T06:28:02.525Z,315
2022-08-08T06:33:02.721Z,338
2022-08-08T06:38:03.034Z,338
2022-08-08T06:43:02.441Z,22
2022-08-08T06:48:04.551Z,22
2022-08-08T06:53:14.061Z,22
2022-08-08T06:58:04.095Z,22
2022-08-08T07:03:04.819Z,22
2022-08-08T07:08:04.618Z,22
2022-08-08T07:13:03.137Z,22
2022-08-08T07:18:35.417Z,22
2022-08-08T07:23:02.850Z,22
2022-08-08T07:28:07.641Z,22
2022-08-08T07:33:02.821Z,338
2022-08-08T07:38:10.264Z,338
2022-08-08T07:43:03.973Z,45
2022-08-08T07:48:02.329Z,45
2022-08-08T07:53:02.405Z,45
2022-08-08T07:58:03.006Z,45
2022-08-08T08:03:02.492Z,315
2022-08-08T08:08:12.407Z,315
2022-08-08T08:13:02.814Z,315
2022-08-08T08:18:02.269Z,315
2022-08-08T08:23:03.067Z,112
2022-08-08T08:28:03.076Z,112
2022-08-08T08:33:03.015Z,135
2022-08-08T08:38:17.966Z,135
2022-08-08T08:43:16.881Z,0
2022-08-08T08:48:03.029Z,0
2022-08-08T08:53:04.759Z,315
2022-08-08T08:58:02.774Z,315
2022-08-08T09:03:02.570Z,225
2022-08-08T09:08:18.386Z,225
2022-08-08T09:13:02.553Z,225
2022-08-08T09:18:03.794Z,225
2022-08-08T09:23:02.679Z,225
2022-08-08T09:28:02.721Z,225
2022-08-08T09:33:54.125Z,315
2022-08-08T09:38:03.451Z,315
2022-08-08T09:43:02.472Z,292
2022-08-08T09:48:17.973Z,292
2022-08-08T09:53:13.959Z,270
2022-08-08T09:58:02.779Z,270
2022-08-08T10:03:02.920Z,315
2022-08-08T10:08:03.212Z,315
2022-08-08T10:13:14.426Z,315
2022-08-08T10:18:09.264Z,315
2022-08-08T10:23:02.788Z,315
2022-08-08T10:28:03.487Z,315
2022-08-08T10:33:02.923Z,315
2022-08-08T10:38:03.292Z,315
2022-08-08T10:43:02.990Z,315
2022-08-08T10:48:03.217Z,315
2022-08-08T10:53:03.146Z,315
2022-08-08T10:58:02.424Z,315
2022-08-08T11:03:03.153Z,315
2022-08-08T11:08:38.222Z,315
2022-08-08T11:13:28.654Z,338
2022-08-08T11:18:02.915Z,338
2022-08-08T11:23:05.324Z,338
2022-08-08T11:28:03.193Z,338
2022-08-08T11:33:04.973Z,315
2022-08-08T11:38:35.503Z,315
2022-08-08T11:43:02.533Z,315
2022-08-08T11:48:05.374Z,315
2022-08-08T11:53:06.257Z,315
2022-08-08T11:58:06.872Z,315
2022-08-08T12:03:03.388Z,270
2022-08-08T12:08:02.527Z,270
2022-08-08T12:13:03.494Z,225
2022-08-08T12:18:02.878Z,225
2022-08-08T12:23:02.766Z,248
2022-08-08T12:28:02.514Z,248
2022-08-08T12:33:02.899Z,225
2022-08-08T12:38:03.005Z,225
2022-08-08T12:43:02.455Z,270
2022-08-08T12:48:10.571Z,270
2022-08-08T12:53:02.719Z,292
2022-08-08T12:58:02.815Z,292
2022-08-08T13:03:02.473Z,292
2022-08-08T13:08:05.229Z,292
2022-08-08T13:13:06.007Z,315
2022-08-08T13:18:11.741Z,315
2022-08-08T13:23:36.076Z,45
2022-08-08T13:28:03.251Z,45
2022-08-08T13:33:02.585Z,315
2022-08-08T13:38:06.946Z,315
2022-08-08T13:43:03.767Z,315
2022-08-08T13:48:02.924Z,315
2022-08-08T13:53:02.515Z,292
2022-08-08T13:58:08.731Z,292
2022-08-08T14:03:10.919Z,225
2022-08-08T14:08:11.589Z,225
2022-08-08T14:13:03.140Z,270
2022-08-08T14:18:35.973Z,270
2022-08-08T14:23:03.235Z,315
2022-08-08T14:28:03.385Z,315
2022-08-08T14:33:02.574Z,315
2022-08-08T14:38:05.948Z,315
2022-08-08T14:43:22.311Z,315
2022-08-08T14:48:02.747Z,315
2022-08-08T14:53:02.949Z,315
2022-08-08T14:58:11.262Z,315
2022-08-08T15:03:14.756Z,315
2022-08-08T15:08:03.504Z,315
2022-08-08T15:13:02.423Z,22
2022-08-08T15:18:02.530Z,22
2022-08-08T15:23:02.994Z,22
2022-08-08T15:28:32.979Z,22
2022-08-08T15:33:02.646Z,0
2022-08-08T15:38:03.453Z,0
2022-08-08T15:43:03.894Z,338
2022-08-08T15:48:15.276Z,338
2022-08-08T15:53:03.106Z,315
2022-08-08T15:58:02.664Z,315
2022-08-08T16:03:03.517Z,0
2022-08-08T16:08:03.313Z,0
2022-08-08T16:13:28.630Z,315
2022-08-08T16:18:11.725Z,315
2022-08-08T16:23:02.739Z,45
2022-08-08T16:28:02.590Z,45
2022-08-08T16:33:03.162Z,338
2022-08-08T16:38:02.611Z,338
2022-08-08T16:43:02.651Z,22
2022-08-08T16:48:02.893Z,22
2022-08-08T16:55:02.596Z,0
2022-08-08T16:58:15.918Z,0
2022-08-08T17:03:03.342Z,0
2022-08-08T17:08:02.702Z,0
2022-08-08T17:13:03.063Z,45
2022-08-08T17:18:04.554Z,45
2022-08-08T17:23:17.693Z,45
2022-08-08T17:28:02.590Z,45
2022-08-08T17:34:53.108Z,0
2022-08-08T17:38:03.722Z,0
2022-08-08T17:43:03.053Z,0
2022-08-08T17:48:02.601Z,0
2022-08-08T17:53:02.689Z,315
2022-08-08T17:58:03.016Z,315
2022-08-08T18:03:08.536Z,338
2022-08-08T18:08:04.415Z,338
2022-08-08T18:13:02.867Z,315
2022-08-08T18:18:09.651Z,315
2022-08-08T18:23:03.185Z,315
2022-08-08T18:28:02.844Z,315
2022-08-08T18:33:04.006Z,315
2022-08-08T18:38:03.700Z,315
2022-08-08T18:43:16.155Z,315
2022-08-08T18:48:07.484Z,315
2022-08-08T18:53:02.800Z,315
2022-08-08T18:58:02.957Z,315
2022-08-08T19:03:06.249Z,315
2022-08-08T19:08:03.192Z,315
2022-08-08T19:13:02.616Z,315
2022-08-08T19:18:33.331Z,315
2022-08-08T19:23:02.802Z,315
2022-08-08T19:28:02.629Z,315
2022-08-08T19:33:02.786Z,315
2022-08-08T19:38:02.681Z,315
2022-08-08T19:43:03.429Z,315
2022-08-08T19:48:03.495Z,315
2022-08-08T19:53:02.782Z,315
2022-08-08T19:58:03.963Z,315
2022-08-08T20:03:14.976Z,315
2022-08-08T20:08:27.867Z,315
2022-08-08T20:14:10.637Z,315
2022-08-08T20:18:03.873Z,315
2022-08-08T20:23:04.181Z,315
2022-08-08T20:28:07.617Z,315
2022-08-08T20:33:02.958Z,315
2022-08-08T20:38:03.623Z,315
2022-08-08T20:43:02.859Z,315
2022-08-08T20:48:03.493Z,315
2022-08-08T20:53:02.987Z,315
2022-08-08T20:58:02.992Z,315
2022-08-08T21:03:03.127Z,315
2022-08-08T21:08:36.403Z,315
2022-08-08T21:13:03.144Z,315
2022-08-08T21:18:03.487Z,315
2022-08-08T21:23:02.732Z,315
2022-08-08T21:28:09.223Z,315
2022-08-08T21:33:08.185Z,315
2022-08-08T21:38:04.034Z,315
2022-08-08T21:43:03.308Z,315
2022-08-08T21:54:23.407Z,315
2022-08-08T21:58:05.908Z,315
2022-08-08T22:03:03.109Z,315
2022-08-08T22:08:03.431Z,315
2022-08-08T22:13:18.311Z,315
2022-08-08T22:18:02.803Z,315
2022-08-08T22:23:04.494Z,315
2022-08-08T22:28:15.050Z,315
2022-08-08T22:33:21.959Z,315
2022-08-08T22:38:03.067Z,315
2022-08-08T22:43:03.280Z,315
2022-08-08T22:48:03.390Z,315
2022-08-08T22:54:28.029Z,315
2022-08-08T22:58:03.353Z,315
2022-08-08T23:03:02.933Z,315
2022-08-08T23:08:03.216Z,315
2022-08-08T23:13:02.973Z,315
2022-08-08T23:18:04.254Z,315
2022-08-08T23:23:03.462Z,315
2022-08-08T23:28:03.065Z,315
2022-08-08T23:33:03.386Z,315
2022-08-08T23:38:03.984Z,315
2022-08-08T23:43:04.431Z,315
2022-08-08T23:49:01.122Z,315
2022-08-08T23:53:05.251Z,315
2022-08-08T23:58:03.656Z,315
